Kathy C — 2CTI7 — position and weather

sailwx.info

Track history (hours):
 
Tides and Currents Weather Stations Pressure Air Temp Water Temp Dewpoint Dewpoint Depression Visibility Wind Speed Wind Dir Waves Ship Positions

Kathy C

Last reported at 2016-Feb-13 01:33 UTC. Time now 2016-Feb-13 02:27 UTC.
Position N 51°08' E 001°49'.

Length 106 m; draft 6.2 m.

Type: Cargo ship. MMSI: 235075591.

Date/timePositionNaut miles runAvg speedWind from/ knotsBaromVisibWave heightAir tempDewpointWater temp
2016-Feb-13 01:33N 51°08' E 001°49'1111.4
2016-Feb-13 00:33N 50°59' E 001°36'144 9.6
2016-Feb-12 09:33N 49°59' W 001°49'1313.5
2016-Feb-12 08:34N 49°56' W 002°09'1211.7
2016-Feb-12 07:33N 49°53' W 002°27'  
2016-Feb-09 20:22N 41°60' W 009°46'7 8.0
2016-Feb-09 19:31N 41°53' W 009°46'9 8.6
2016-Feb-09 18:31N 41°44' W 009°47'9 8.8
2016-Feb-09 17:31N 41°35' W 009°47'9 8.9
2016-Feb-09 16:31N 41°26' W 009°48'12 8.9
2016-Feb-09 15:07N 41°14' W 009°48'5 8.5
2016-Feb-09 14:31N 41°09' W 009°48'11 8.9
2016-Feb-09 13:19N 40°58' W 009°48'7 9.1
2016-Feb-09 12:31N 40°51' W 009°48'9 9.1
2016-Feb-09 11:31N 40°42' W 009°48'9 9.1
2016-Feb-09 10:31N 40°33' W 009°48'9 9.2
2016-Feb-09 09:31N 40°24' W 009°49'9 9.3
2016-Feb-09 08:31N 40°14' W 009°49'9 9.2
2016-Feb-09 07:31N 40°05' W 009°49'9 9.1
2016-Feb-09 06:31N 39°56' W 009°49'9 8.9
2016-Feb-09 05:27N 39°47' W 009°49'10 9.5
2016-Feb-09 04:28N 39°37' W 009°50'10 9.7
2016-Feb-09 03:28N 39°28' W 009°50'8 9.2
2016-Feb-09 02:33N 39°19' W 009°50'1010.1
2016-Feb-09 01:33N 39°09' W 009°50'1010.0
2016-Feb-09 00:33N 38°59' W 009°51'1010.2
2016-Feb-08 23:33N 38°49' W 009°51'1010.0
2016-Feb-08 22:33N 38°39' W 009°49'9 9.3
2016-Feb-08 21:33N 38°32' W 009°42'9 9.4
2016-Feb-08 20:33N 38°26' W 009°33'10 9.6
2016-Feb-08 19:33N 38°19' W 009°24'10 9.7
2016-Feb-08 18:33N 38°12' W 009°15'1010.3
2016-Feb-08 17:33N 38°04' W 009°06'1010.3
2016-Feb-08 16:33N 37°57' W 008°57'4 4.2
2016-Feb-08 15:31N 37°56' W 008°52'0 0.0
2016-Feb-08 14:31N 37°56' W 008°52'0 0.0
2016-Feb-08 13:31N 37°56' W 008°52'0 0.0
2016-Feb-08 12:31N 37°56' W 008°52'0 0.0
2016-Feb-08 11:31N 37°56' W 008°52'0 0.0
2016-Feb-08 10:31N 37°56' W 008°52'0 0.0
2016-Feb-08 09:31N 37°56' W 008°52'0 0.0
2016-Feb-08 08:31N 37°56' W 008°52'0 0.0
2016-Feb-08 07:31N 37°56' W 008°52'0 0.0
2016-Feb-08 06:31N 37°56' W 008°52'0 0.0
2016-Feb-08 05:31N 37°56' W 008°52'0 0.0
2016-Feb-08 04:31N 37°56' W 008°52'0 0.0
2016-Feb-08 03:31N 37°56' W 008°52'0 0.0
2016-Feb-08 02:31N 37°56' W 008°52'0 0.0
2016-Feb-08 01:31N 37°56' W 008°52'0 0.0
2016-Feb-08 00:31N 37°56' W 008°52'0 0.0
2016-Feb-07 23:31N 37°56' W 008°52'0 0.0
2016-Feb-07 22:25N 37°56' W 008°52'0 0.0
2016-Feb-07 21:31N 37°56' W 008°52'0 0.0
2016-Feb-07 20:31N 37°56' W 008°52'0 0.0
2016-Feb-07 19:31N 37°56' W 008°52'0 0.0
2016-Feb-07 18:31N 37°56' W 008°52'0 0.0
2016-Feb-07 17:31N 37°56' W 008°52'0 0.0
2016-Feb-07 16:31N 37°56' W 008°52'0 0.0
2016-Feb-07 15:31N 37°56' W 008°52'0 0.0
2016-Feb-07 14:31N 37°56' W 008°52'0 0.0
2016-Feb-07 13:28N 37°56' W 008°52'0 0.0
2016-Feb-07 12:31N 37°56' W 008°52'0 0.0
2016-Feb-07 11:31N 37°56' W 008°52'0 0.0
2016-Feb-07 10:31N 37°56' W 008°52'0 0.0
2016-Feb-07 09:31N 37°56' W 008°52'0 0.0
2016-Feb-07 08:31N 37°56' W 008°52'0 0.0
2016-Feb-07 07:31N 37°56' W 008°52'0 0.0
2016-Feb-07 06:31N 37°56' W 008°52'0 0.0
2016-Feb-07 05:31N 37°56' W 008°52'0 0.0
2016-Feb-07 04:31N 37°56' W 008°52'0 0.0
2016-Feb-07 03:31N 37°56' W 008°52'0 0.0
2016-Feb-07 02:31N 37°56' W 008°52'0 0.0
2016-Feb-07 01:31N 37°56' W 008°52'0 0.0
2016-Feb-07 00:31N 37°56' W 008°52'0 0.0
2016-Feb-06 23:31N 37°56' W 008°52'0 0.0
2016-Feb-06 22:31N 37°56' W 008°52'0 0.0
2016-Feb-06 21:31N 37°56' W 008°52'0 0.0
2016-Feb-06 20:31N 37°56' W 008°52'0 0.0
2016-Feb-06 19:31N 37°56' W 008°52'0 0.0
2016-Feb-06 18:31N 37°56' W 008°52'0 0.0
2016-Feb-06 17:31N 37°56' W 008°52'0 0.0
2016-Feb-06 16:31N 37°56' W 008°52'0 0.0
2016-Feb-06 15:31N 37°56' W 008°52'0 0.0
2016-Feb-06 14:31N 37°56' W 008°52'0 0.2
2016-Feb-06 13:33N 37°56' W 008°52'9 8.6
2016-Feb-06 12:33N 38°00' W 009°01'1212.0
2016-Feb-06 11:33N 38°06' W 009°14'1211.9
2016-Feb-06 10:33N 38°13' W 009°27'1211.9
2016-Feb-06 09:33N 38°20' W 009°39'1312.8
2016-Feb-06 08:31N 38°28' W 009°53'1110.9
2016-Feb-06 07:33N 38°35' W 010°03'1211.6
2016-Feb-06 06:33N 38°46' W 010°05'1211.9
2016-Feb-06 05:33N 38°58' W 010°04'1212.1
2016-Feb-06 04:33N 39°10' W 010°00'1312.3
2016-Feb-06 03:28N 39°22' W 009°54'1010.7
2016-Feb-06 02:32N 39°32' W 009°49'1312.5
2016-Feb-06 01:28N 39°44' W 009°44'1211.6
2016-Feb-06 00:28N 39°55' W 009°39'1111.5
2016-Feb-05 23:28N 40°06' W 009°32'1211.5
2016-Feb-05 22:28N 40°15' W 009°25'1211.9
2016-Feb-05 21:28N 40°25' W 009°15'1211.8
2016-Feb-05 20:28N 40°35' W 009°06'1011.3
2016-Feb-05 19:33N 40°44' W 009°00'1212.0
2016-Feb-05 18:33N 40°55' W 008°55'1212.2
2016-Feb-05 17:33N 41°06' W 008°47'7 7.2
2016-Feb-05 16:33N 41°12' W 008°41'0 0.0
2016-Feb-05 15:31N 41°12' W 008°41'0 0.0
2016-Feb-05 14:31N 41°12' W 008°41'0 0.0
2016-Feb-05 13:31N 41°12' W 008°41'0 0.0
2016-Feb-05 12:31N 41°12' W 008°41'0 0.0
2016-Feb-05 11:33N 41°12' W 008°41'0 0.0
2016-Feb-05 10:33N 41°12' W 008°41'0 0.0
2016-Feb-05 09:33N 41°12' W 008°41'0 0.0
2016-Feb-05 08:33N 41°12' W 008°41'0 0.0
2016-Feb-05 07:33N 41°12' W 008°41'0 0.0
2016-Feb-05 06:31N 41°12' W 008°41'0 0.0
2016-Feb-05 05:30N 41°12' W 008°41'0 0.0
2016-Feb-05 04:33N 41°12' W 008°41'0 0.0
2016-Feb-05 03:33N 41°12' W 008°41'0 0.0
2016-Feb-05 02:30N 41°12' W 008°41'0 0.0
2016-Feb-05 01:33N 41°12' W 008°41'0 0.0
2016-Feb-05 00:33N 41°12' W 008°41'0 0.0
2016-Feb-04 23:32N 41°12' W 008°41'0 0.0
2016-Feb-04 22:33N 41°12' W 008°41'0 0.0
2016-Feb-04 21:33N 41°12' W 008°41'0 0.0
2016-Feb-04 20:30N 41°12' W 008°41'0 0.0
2016-Feb-04 19:33N 41°12' W 008°41'0 0.0
2016-Feb-04 18:33N 41°12' W 008°41'0 0.0
2016-Feb-04 17:33N 41°12' W 008°41'0 0.0
2016-Feb-04 16:33N 41°12' W 008°41'0 0.0
2016-Feb-04 15:30N 41°12' W 008°41'0 0.0
2016-Feb-04 14:33N 41°12' W 008°41'0 0.0
2016-Feb-04 13:33N 41°12' W 008°41'0 0.0
2016-Feb-04 12:33N 41°12' W 008°41'0 0.0
2016-Feb-04 11:33N 41°12' W 008°41'0 0.0
2016-Feb-04 10:33N 41°12' W 008°41'0 0.0
2016-Feb-04 09:33N 41°12' W 008°41'0 0.0
2016-Feb-04 08:33N 41°12' W 008°41'0 0.0
2016-Feb-04 07:33N 41°12' W 008°41'0 0.0
2016-Feb-04 06:30N 41°12' W 008°41'0 0.0
2016-Feb-04 05:31N 41°12' W 008°41'0 0.0
2016-Feb-04 04:33N 41°12' W 008°41'0 0.0
2016-Feb-04 03:33N 41°12' W 008°41'0 0.0
2016-Feb-04 02:33N 41°12' W 008°41'0 0.0
2016-Feb-04 01:31N 41°12' W 008°41'0 0.0
2016-Feb-04 00:33N 41°12' W 008°41'0 0.0
2016-Feb-03 23:30N 41°12' W 008°41'0 0.0
2016-Feb-03 22:33N 41°12' W 008°41'0 0.0
2016-Feb-03 21:33N 41°12' W 008°41'0 0.0
2016-Feb-03 20:33N 41°12' W 008°41'0 0.0
2016-Feb-03 19:33N 41°12' W 008°41'0 0.0
2016-Feb-03 18:31N 41°12' W 008°41'0 0.0
2016-Feb-03 17:33N 41°12' W 008°41'0 0.0
2016-Feb-03 16:33N 41°12' W 008°41'0 0.0
2016-Feb-03 15:30N 41°12' W 008°41'0 0.0
2016-Feb-03 14:33N 41°12' W 008°41'0 0.0
2016-Feb-03 13:33N 41°12' W 008°41'0 0.0
2016-Feb-03 12:33N 41°12' W 008°41'0 0.0
2016-Feb-03 11:33N 41°12' W 008°41'0 0.0
2016-Feb-03 10:30N 41°12' W 008°41'0 0.0
2016-Feb-03 09:30N 41°12' W 008°41'0 0.0
2016-Feb-03 08:30N 41°12' W 008°41'0 0.0
2016-Feb-03 07:33N 41°12' W 008°41'0 0.0
2016-Feb-03 06:33N 41°12' W 008°41'0 0.0
2016-Feb-03 05:33N 41°12' W 008°41'0 0.0
2016-Feb-03 04:33N 41°12' W 008°41'0 0.0
2016-Feb-03 03:30N 41°12' W 008°41'0 0.0
2016-Feb-03 02:33N 41°12' W 008°41'  
Track history (hours):
 
Tides and Currents Weather Stations Pressure Air Temp Water Temp Dewpoint Dewpoint Depression Visibility Wind Speed Wind Dir Waves Ship Positions

Kathy C

Last reported at 2016-Feb-13 01:33 UTC. Time now 2016-Feb-13 02:27 UTC.
Position N 51°08' E 001°49'.

Length 106 m; draft 6.2 m.

Type: Cargo ship. MMSI: 235075591.

Date/timePositionNaut miles runAvg speedWind from/ knotsBaromVisibWave heightAir tempDewpointWater temp
2016-Feb-13 01:33N 51°08' E 001°49'1111.4
2016-Feb-13 00:33N 50°59' E 001°36'144 9.6
2016-Feb-12 09:33N 49°59' W 001°49'1313.5
2016-Feb-12 08:34N 49°56' W 002°09'1211.7
2016-Feb-12 07:33N 49°53' W 002°27'  
2016-Feb-09 20:22N 41°60' W 009°46'7 8.0
2016-Feb-09 19:31N 41°53' W 009°46'9 8.6
2016-Feb-09 18:31N 41°44' W 009°47'9 8.8
2016-Feb-09 17:31N 41°35' W 009°47'9 8.9
2016-Feb-09 16:31N 41°26' W 009°48'12 8.9
2016-Feb-09 15:07N 41°14' W 009°48'5 8.5
2016-Feb-09 14:31N 41°09' W 009°48'11 8.9
2016-Feb-09 13:19N 40°58' W 009°48'7 9.1
2016-Feb-09 12:31N 40°51' W 009°48'9 9.1
2016-Feb-09 11:31N 40°42' W 009°48'9 9.1
2016-Feb-09 10:31N 40°33' W 009°48'9 9.2
2016-Feb-09 09:31N 40°24' W 009°49'9 9.3
2016-Feb-09 08:31N 40°14' W 009°49'9 9.2
2016-Feb-09 07:31N 40°05' W 009°49'9 9.1
2016-Feb-09 06:31N 39°56' W 009°49'9 8.9
2016-Feb-09 05:27N 39°47' W 009°49'10 9.5
2016-Feb-09 04:28N 39°37' W 009°50'10 9.7
2016-Feb-09 03:28N 39°28' W 009°50'8 9.2
2016-Feb-09 02:33N 39°19' W 009°50'1010.1
2016-Feb-09 01:33N 39°09' W 009°50'1010.0
2016-Feb-09 00:33N 38°59' W 009°51'1010.2
2016-Feb-08 23:33N 38°49' W 009°51'1010.0
2016-Feb-08 22:33N 38°39' W 009°49'9 9.3
2016-Feb-08 21:33N 38°32' W 009°42'9 9.4
2016-Feb-08 20:33N 38°26' W 009°33'10 9.6
2016-Feb-08 19:33N 38°19' W 009°24'10 9.7
2016-Feb-08 18:33N 38°12' W 009°15'1010.3
2016-Feb-08 17:33N 38°04' W 009°06'1010.3
2016-Feb-08 16:33N 37°57' W 008°57'4 4.2
2016-Feb-08 15:31N 37°56' W 008°52'0 0.0
2016-Feb-08 14:31N 37°56' W 008°52'0 0.0
2016-Feb-08 13:31N 37°56' W 008°52'0 0.0
2016-Feb-08 12:31N 37°56' W 008°52'0 0.0
2016-Feb-08 11:31N 37°56' W 008°52'0 0.0
2016-Feb-08 10:31N 37°56' W 008°52'0 0.0
2016-Feb-08 09:31N 37°56' W 008°52'0 0.0
2016-Feb-08 08:31N 37°56' W 008°52'0 0.0
2016-Feb-08 07:31N 37°56' W 008°52'0 0.0
2016-Feb-08 06:31N 37°56' W 008°52'0 0.0
2016-Feb-08 05:31N 37°56' W 008°52'0 0.0
2016-Feb-08 04:31N 37°56' W 008°52'0 0.0
2016-Feb-08 03:31N 37°56' W 008°52'0 0.0
2016-Feb-08 02:31N 37°56' W 008°52'0 0.0
2016-Feb-08 01:31N 37°56' W 008°52'0 0.0
2016-Feb-08 00:31N 37°56' W 008°52'0 0.0
2016-Feb-07 23:31N 37°56' W 008°52'0 0.0
2016-Feb-07 22:25N 37°56' W 008°52'0 0.0
2016-Feb-07 21:31N 37°56' W 008°52'0 0.0
2016-Feb-07 20:31N 37°56' W 008°52'0 0.0
2016-Feb-07 19:31N 37°56' W 008°52'0 0.0
2016-Feb-07 18:31N 37°56' W 008°52'0 0.0
2016-Feb-07 17:31N 37°56' W 008°52'0 0.0
2016-Feb-07 16:31N 37°56' W 008°52'0 0.0
2016-Feb-07 15:31N 37°56' W 008°52'0 0.0
2016-Feb-07 14:31N 37°56' W 008°52'0 0.0
2016-Feb-07 13:28N 37°56' W 008°52'0 0.0
2016-Feb-07 12:31N 37°56' W 008°52'0 0.0
2016-Feb-07 11:31N 37°56' W 008°52'0 0.0
2016-Feb-07 10:31N 37°56' W 008°52'0 0.0
2016-Feb-07 09:31N 37°56' W 008°52'0 0.0
2016-Feb-07 08:31N 37°56' W 008°52'0 0.0
2016-Feb-07 07:31N 37°56' W 008°52'0 0.0
2016-Feb-07 06:31N 37°56' W 008°52'0 0.0
2016-Feb-07 05:31N 37°56' W 008°52'0 0.0
2016-Feb-07 04:31N 37°56' W 008°52'0 0.0
2016-Feb-07 03:31N 37°56' W 008°52'0 0.0
2016-Feb-07 02:31N 37°56' W 008°52'0 0.0
2016-Feb-07 01:31N 37°56' W 008°52'0 0.0
2016-Feb-07 00:31N 37°56' W 008°52'0 0.0
2016-Feb-06 23:31N 37°56' W 008°52'0 0.0
2016-Feb-06 22:31N 37°56' W 008°52'0 0.0
2016-Feb-06 21:31N 37°56' W 008°52'0 0.0
2016-Feb-06 20:31N 37°56' W 008°52'0 0.0
2016-Feb-06 19:31N 37°56' W 008°52'0 0.0
2016-Feb-06 18:31N 37°56' W 008°52'0 0.0
2016-Feb-06 17:31N 37°56' W 008°52'0 0.0
2016-Feb-06 16:31N 37°56' W 008°52'0 0.0
2016-Feb-06 15:31N 37°56' W 008°52'0 0.0
2016-Feb-06 14:31N 37°56' W 008°52'0 0.2
2016-Feb-06 13:33N 37°56' W 008°52'9 8.6
2016-Feb-06 12:33N 38°00' W 009°01'1212.0
2016-Feb-06 11:33N 38°06' W 009°14'1211.9
2016-Feb-06 10:33N 38°13' W 009°27'1211.9
2016-Feb-06 09:33N 38°20' W 009°39'1312.8
2016-Feb-06 08:31N 38°28' W 009°53'1110.9
2016-Feb-06 07:33N 38°35' W 010°03'1211.6
2016-Feb-06 06:33N 38°46' W 010°05'1211.9
2016-Feb-06 05:33N 38°58' W 010°04'1212.1
2016-Feb-06 04:33N 39°10' W 010°00'1312.3
2016-Feb-06 03:28N 39°22' W 009°54'1010.7
2016-Feb-06 02:32N 39°32' W 009°49'1312.5
2016-Feb-06 01:28N 39°44' W 009°44'1211.6
2016-Feb-06 00:28N 39°55' W 009°39'1111.5
2016-Feb-05 23:28N 40°06' W 009°32'1211.5
2016-Feb-05 22:28N 40°15' W 009°25'1211.9
2016-Feb-05 21:28N 40°25' W 009°15'1211.8
2016-Feb-05 20:28N 40°35' W 009°06'1011.3
2016-Feb-05 19:33N 40°44' W 009°00'1212.0
2016-Feb-05 18:33N 40°55' W 008°55'1212.2
2016-Feb-05 17:33N 41°06' W 008°47'7 7.2
2016-Feb-05 16:33N 41°12' W 008°41'0 0.0
2016-Feb-05 15:31N 41°12' W 008°41'0 0.0
2016-Feb-05 14:31N 41°12' W 008°41'0 0.0
2016-Feb-05 13:31N 41°12' W 008°41'0 0.0
2016-Feb-05 12:31N 41°12' W 008°41'0 0.0
2016-Feb-05 11:33N 41°12' W 008°41'0 0.0
2016-Feb-05 10:33N 41°12' W 008°41'0 0.0
2016-Feb-05 09:33N 41°12' W 008°41'0 0.0
2016-Feb-05 08:33N 41°12' W 008°41'0 0.0
2016-Feb-05 07:33N 41°12' W 008°41'0 0.0
2016-Feb-05 06:31N 41°12' W 008°41'0 0.0
2016-Feb-05 05:30N 41°12' W 008°41'0 0.0
2016-Feb-05 04:33N 41°12' W 008°41'0 0.0
2016-Feb-05 03:33N 41°12' W 008°41'0 0.0
2016-Feb-05 02:30N 41°12' W 008°41'0 0.0
2016-Feb-05 01:33N 41°12' W 008°41'0 0.0
2016-Feb-05 00:33N 41°12' W 008°41'0 0.0
2016-Feb-04 23:32N 41°12' W 008°41'0 0.0
2016-Feb-04 22:33N 41°12' W 008°41'0 0.0
2016-Feb-04 21:33N 41°12' W 008°41'0 0.0
2016-Feb-04 20:30N 41°12' W 008°41'0 0.0
2016-Feb-04 19:33N 41°12' W 008°41'0 0.0
2016-Feb-04 18:33N 41°12' W 008°41'0 0.0
2016-Feb-04 17:33N 41°12' W 008°41'0 0.0
2016-Feb-04 16:33N 41°12' W 008°41'0 0.0
2016-Feb-04 15:30N 41°12' W 008°41'0 0.0
2016-Feb-04 14:33N 41°12' W 008°41'0 0.0
2016-Feb-04 13:33N 41°12' W 008°41'0 0.0
2016-Feb-04 12:33N 41°12' W 008°41'0 0.0
2016-Feb-04 11:33N 41°12' W 008°41'0 0.0
2016-Feb-04 10:33N 41°12' W 008°41'0 0.0
2016-Feb-04 09:33N 41°12' W 008°41'0 0.0
2016-Feb-04 08:33N 41°12' W 008°41'0 0.0
2016-Feb-04 07:33N 41°12' W 008°41'0 0.0
2016-Feb-04 06:30N 41°12' W 008°41'0 0.0
2016-Feb-04 05:31N 41°12' W 008°41'0 0.0
2016-Feb-04 04:33N 41°12' W 008°41'0 0.0
2016-Feb-04 03:33N 41°12' W 008°41'0 0.0
2016-Feb-04 02:33N 41°12' W 008°41'0 0.0
2016-Feb-04 01:31N 41°12' W 008°41'0 0.0
2016-Feb-04 00:33N 41°12' W 008°41'0 0.0
2016-Feb-03 23:30N 41°12' W 008°41'0 0.0
2016-Feb-03 22:33N 41°12' W 008°41'0 0.0
2016-Feb-03 21:33N 41°12' W 008°41'0 0.0
2016-Feb-03 20:33N 41°12' W 008°41'0 0.0
2016-Feb-03 19:33N 41°12' W 008°41'0 0.0
2016-Feb-03 18:31N 41°12' W 008°41'0 0.0
2016-Feb-03 17:33N 41°12' W 008°41'0 0.0
2016-Feb-03 16:33N 41°12' W 008°41'0 0.0
2016-Feb-03 15:30N 41°12' W 008°41'0 0.0
2016-Feb-03 14:33N 41°12' W 008°41'0 0.0
2016-Feb-03 13:33N 41°12' W 008°41'0 0.0
2016-Feb-03 12:33N 41°12' W 008°41'0 0.0
2016-Feb-03 11:33N 41°12' W 008°41'0 0.0
2016-Feb-03 10:30N 41°12' W 008°41'0 0.0
2016-Feb-03 09:30N 41°12' W 008°41'0 0.0
2016-Feb-03 08:30N 41°12' W 008°41'0 0.0
2016-Feb-03 07:33N 41°12' W 008°41'0 0.0
2016-Feb-03 06:33N 41°12' W 008°41'0 0.0
2016-Feb-03 05:33N 41°12' W 008°41'0 0.0
2016-Feb-03 04:33N 41°12' W 008°41'0 0.0
2016-Feb-03 03:30N 41°12' W 008°41'0 0.0
2016-Feb-03 02:33N 41°12' W 008°41'  

Dump ship's entire track history